createdAt,value
2023-05-19T00:01:16.681Z,68.01
2023-05-19T00:03:52.757Z,68.13
2023-05-19T00:06:27.345Z,68.55
2023-05-19T00:09:07.801Z,68.31
2023-05-19T00:11:39.104Z,68.52
2023-05-19T00:14:07.947Z,68.37
2023-05-19T00:16:35.044Z,68.78
2023-05-19T00:19:03.666Z,68.79
2023-05-19T00:21:31.292Z,68.82
2023-05-19T00:23:58.720Z,68.66
2023-05-19T00:26:27.078Z,69.20
2023-05-19T00:29:04.356Z,69.11
2023-05-19T00:31:31.768Z,68.85
2023-05-19T00:33:58.360Z,69.21
2023-05-19T00:36:26.034Z,68.98
2023-05-19T00:38:52.867Z,69.16
2023-05-19T00:41:19.597Z,69.56
2023-05-19T00:43:46.247Z,69.71
2023-05-19T00:46:12.937Z,69.56
2023-05-19T00:48:39.613Z,69.40
2023-05-19T00:51:06.676Z,69.89
2023-05-19T00:53:34.736Z,69.81
2023-05-19T00:56:03.069Z,69.97
2023-05-19T00:58:31.203Z,69.96
2023-05-19T01:01:03.852Z,69.81
2023-05-19T01:03:36.274Z,70.09
2023-05-19T01:06:07.159Z,70.27
2023-05-19T01:08:35.722Z,70.29
2023-05-19T01:11:02.868Z,70.25
2023-05-19T01:13:30.527Z,69.95
2023-05-19T01:16:09.176Z,70.60
2023-05-19T01:18:40.093Z,70.61
2023-05-19T01:21:24.858Z,70.64
2023-05-19T01:23:57.141Z,70.68
2023-05-19T01:26:54.921Z,70.59
2023-05-19T01:29:41.038Z,71.06
2023-05-19T01:32:09.334Z,70.84
2023-05-19T01:34:44.201Z,71.32
2023-05-19T01:37:13.331Z,71.12
2023-05-19T01:39:40.370Z,71.51
2023-05-19T01:42:07.977Z,71.50
2023-05-19T01:44:35.730Z,71.58
2023-05-19T01:47:02.575Z,71.73
2023-05-19T01:49:29.359Z,71.88
2023-05-19T01:51:56.297Z,71.70
2023-05-19T01:54:22.981Z,71.72
2023-05-19T01:57:15.070Z,71.61
2023-05-19T02:00:15.815Z,71.69
2023-05-19T02:02:55.385Z,71.22
2023-05-19T02:05:29.560Z,71.78
2023-05-19T02:08:17.214Z,71.79
2023-05-19T02:10:50.073Z,71.44
2023-05-19T02:13:20.129Z,71.70
2023-05-19T02:15:48.510Z,71.86
2023-05-19T02:18:17.864Z,71.49
2023-05-19T02:20:44.493Z,71.63
2023-05-19T02:23:11.063Z,71.47
2023-05-19T02:25:37.592Z,71.85
2023-05-19T02:28:06.751Z,71.95
2023-05-19T02:30:33.643Z,71.69
2023-05-19T02:33:00.647Z,71.89
2023-05-19T02:35:27.931Z,71.80
2023-05-19T02:37:54.477Z,71.82
2023-05-19T02:40:22.262Z,71.60
2023-05-19T02:42:49.435Z,71.76
2023-05-19T02:45:16.290Z,71.43
2023-05-19T02:47:42.858Z,71.58
2023-05-19T02:50:09.554Z,71.49
2023-05-19T02:52:36.047Z,71.50
2023-05-19T02:55:02.552Z,71.18
2023-05-19T02:57:30.051Z,71.34
2023-05-19T02:59:56.532Z,71.32
2023-05-19T03:02:23.028Z,71.07
2023-05-19T03:04:49.881Z,71.01
2023-05-19T03:07:16.474Z,71.11
2023-05-19T03:09:43.001Z,71.32
2023-05-19T03:12:09.602Z,71.56
2023-05-19T03:14:39.110Z,71.20
2023-05-19T03:17:08.094Z,71.21
2023-05-19T03:19:34.716Z,71.19
2023-05-19T03:22:01.244Z,71.52
2023-05-19T03:24:28.258Z,71.24
2023-05-19T03:26:55.668Z,71.00
2023-05-19T03:29:22.164Z,71.31
2023-05-19T03:31:48.775Z,71.47
2023-05-19T03:34:16.510Z,71.19
2023-05-19T03:36:44.986Z,71.29
2023-05-19T03:39:15.471Z,71.18
2023-05-19T03:41:42.361Z,71.30
2023-05-19T03:44:08.881Z,71.74
2023-05-19T03:46:35.420Z,71.28
2023-05-19T03:49:07.609Z,71.58
2023-05-19T03:51:54.105Z,71.39
2023-05-19T03:54:31.686Z,71.52
2023-05-19T03:56:58.329Z,71.57
2023-05-19T03:59:24.911Z,71.86
2023-05-19T04:01:51.654Z,71.52
2023-05-19T04:04:18.265Z,71.69
2023-05-19T04:06:45.648Z,71.77
2023-05-19T04:09:14.169Z,71.22
2023-05-19T04:11:41.980Z,71.46
2023-05-19T04:14:09.180Z,71.30
2023-05-19T04:16:36.767Z,70.92
2023-05-19T04:19:03.611Z,71.74
2023-05-19T04:21:30.143Z,71.29
2023-05-19T04:23:59.170Z,71.17
2023-05-19T04:26:26.889Z,71.66
2023-05-19T04:28:53.941Z,71.72
2023-05-19T04:31:21.601Z,71.80
2023-05-19T04:33:49.647Z,71.55
2023-05-19T04:36:18.393Z,71.87
2023-05-19T04:38:46.529Z,71.89
2023-05-19T04:41:13.937Z,71.81
2023-05-19T04:43:44.430Z,71.72
2023-05-19T04:46:13.879Z,72.14
2023-05-19T04:48:42.714Z,72.15
2023-05-19T04:51:09.363Z,72.18
2023-05-19T04:53:36.516Z,72.65
2023-05-19T04:56:09.627Z,72.58
2023-05-19T04:58:38.738Z,72.43
2023-05-19T05:01:06.723Z,72.57
2023-05-19T05:03:34.589Z,72.52
2023-05-19T05:06:01.347Z,72.46
2023-05-19T05:08:28.241Z,72.37
2023-05-19T05:10:55.351Z,72.46
2023-05-19T05:13:24.037Z,72.75
2023-05-19T05:15:52.956Z,72.61
2023-05-19T05:18:22.328Z,72.34
2023-05-19T05:20:49.454Z,72.31
2023-05-19T05:23:16.709Z,72.42
2023-05-19T05:25:47.226Z,72.32
2023-05-19T05:28:15.020Z,72.21
2023-05-19T05:30:43.589Z,72.38
2023-05-19T05:33:10.613Z,72.13
2023-05-19T05:35:39.208Z,71.89
2023-05-19T05:38:08.103Z,71.39
2023-05-19T05:40:36.250Z,71.59
2023-05-19T05:43:04.121Z,71.47
2023-05-19T05:45:34.769Z,71.37
2023-05-19T05:48:02.009Z,70.70
2023-05-19T05:50:30.685Z,70.78
2023-05-19T05:53:01.141Z,70.66
2023-05-19T05:55:28.065Z,70.51
2023-05-19T05:57:56.911Z,70.30
2023-05-19T06:00:23.648Z,70.57
2023-05-19T06:02:52.812Z,69.79
2023-05-19T06:05:20.293Z,69.40
2023-05-19T06:07:48.013Z,69.57
2023-05-19T06:10:19.809Z,68.83
2023-05-19T06:12:47.207Z,69.37
2023-05-19T06:15:14.875Z,68.47
2023-05-19T06:18:01.143Z,68.37
2023-05-19T06:20:27.956Z,68.47
2023-05-19T06:22:55.762Z,68.73
2023-05-19T06:25:24.707Z,68.59
2023-05-19T06:27:51.453Z,68.27
2023-05-19T06:30:19.534Z,68.69
2023-05-19T06:33:01.014Z,68.23
2023-05-19T06:35:27.861Z,68.20
2023-05-19T06:37:56.233Z,67.94
2023-05-19T06:40:23.413Z,68.03
2023-05-19T06:42:49.961Z,68.55
2023-05-19T06:45:25.199Z,68.24
2023-05-19T06:47:51.764Z,67.91
2023-05-19T06:50:19.117Z,68.17
2023-05-19T06:52:48.743Z,68.82
2023-05-19T06:55:15.880Z,68.85
2023-05-19T06:57:43.085Z,68.76
2023-05-19T07:00:15.260Z,69.34
2023-05-19T07:02:47.084Z,68.95
2023-05-19T07:05:14.126Z,69.20
2023-05-19T07:07:41.756Z,69.11
2023-05-19T07:10:12.837Z,69.36
2023-05-19T07:12:39.402Z,69.15
2023-05-19T07:15:07.193Z,69.21
2023-05-19T07:17:34.809Z,68.48
2023-05-19T07:20:01.645Z,68.89
2023-05-19T07:22:28.389Z,68.38
2023-05-19T07:24:57.053Z,68.98
2023-05-19T07:27:23.555Z,68.65
2023-05-19T07:29:49.986Z,68.58
2023-05-19T07:32:16.533Z,67.77
2023-05-19T07:34:43.172Z,68.27
2023-05-19T07:37:09.774Z,67.36
2023-05-19T07:39:36.303Z,67.54
2023-05-19T07:42:03.237Z,67.59
2023-05-19T07:44:31.409Z,67.31
2023-05-19T07:46:57.918Z,66.63
2023-05-19T07:49:24.438Z,67.18
2023-05-19T07:51:50.939Z,66.43
2023-05-19T07:54:17.419Z,65.85
2023-05-19T07:56:44.021Z,66.04
2023-05-19T07:59:10.579Z,65.74
2023-05-19T08:01:37.069Z,64.97
2023-05-19T08:04:03.774Z,65.35
2023-05-19T08:06:31.713Z,64.21
2023-05-19T08:08:58.267Z,63.54
2023-05-19T08:11:24.736Z,63.18
2023-05-19T08:13:51.668Z,62.96
2023-05-19T08:16:18.359Z,62.88
2023-05-19T08:18:44.927Z,62.26
2023-05-19T08:21:11.781Z,61.63
2023-05-19T08:23:38.720Z,61.40
2023-05-19T08:26:05.560Z,60.71
2023-05-19T08:28:32.108Z,60.24
2023-05-19T08:30:58.677Z,59.82
2023-05-19T08:33:25.328Z,59.57
2023-05-19T08:35:51.796Z,59.60
2023-05-19T08:38:18.302Z,59.02
2023-05-19T08:40:47.273Z,58.63
2023-05-19T08:43:14.028Z,58.72
2023-05-19T08:45:46.691Z,59.30
2023-05-19T08:48:14.830Z,58.90
2023-05-19T08:50:50.822Z,58.03
2023-05-19T08:53:33.823Z,58.79
2023-05-19T08:56:11.266Z,58.41
2023-05-19T08:58:40.499Z,58.75
2023-05-19T09:01:08.507Z,58.96
2023-05-19T09:03:39.264Z,58.95
2023-05-19T09:06:08.635Z,58.22
2023-05-19T09:08:36.125Z,58.66
2023-05-19T09:11:02.678Z,59.10
2023-05-19T09:13:29.205Z,58.92
2023-05-19T09:15:59.592Z,59.07
2023-05-19T09:18:26.878Z,59.21
2023-05-19T09:21:02.723Z,58.86
2023-05-19T09:23:32.572Z,59.00
2023-05-19T09:26:02.263Z,59.33
2023-05-19T09:28:33.400Z,59.22
2023-05-19T09:31:01.127Z,58.62
2023-05-19T09:33:28.774Z,58.64
2023-05-19T09:35:58.768Z,58.87
2023-05-19T09:38:29.348Z,59.40
2023-05-19T09:40:57.916Z,59.73
2023-05-19T09:43:27.249Z,60.64
2023-05-19T09:46:07.515Z,60.54
2023-05-19T09:48:36.438Z,61.07
2023-05-19T09:51:06.238Z,60.43
2023-05-19T09:53:34.330Z,60.55
2023-05-19T09:56:02.189Z,60.53
2023-05-19T09:58:35.068Z,60.19
2023-05-19T10:01:02.422Z,59.98
2023-05-19T10:03:30.974Z,59.22
2023-05-19T10:05:57.540Z,59.84
2023-05-19T10:08:26.555Z,59.68
2023-05-19T10:10:53.621Z,60.02
2023-05-19T10:13:21.855Z,60.27
2023-05-19T10:15:58.284Z,59.36
2023-05-19T10:18:27.623Z,59.39
2023-05-19T10:20:54.355Z,59.92
2023-05-19T10:23:21.091Z,59.43
2023-05-19T10:25:49.267Z,59.63
2023-05-19T10:28:21.096Z,59.80
2023-05-19T10:30:51.212Z,59.56
2023-05-19T10:33:20.946Z,59.82
2023-05-19T10:36:15.768Z,60.37
2023-05-19T10:38:50.009Z,61.12
2023-05-19T10:41:55.146Z,61.95
2023-05-19T10:44:40.607Z,61.92
2023-05-19T10:47:08.692Z,62.76
2023-05-19T10:49:36.599Z,62.84
2023-05-19T10:52:03.628Z,62.52
2023-05-19T10:54:46.132Z,63.19
2023-05-19T10:57:17.066Z,62.91
2023-05-19T10:59:47.155Z,62.65
2023-05-19T11:02:40.227Z,63.14
2023-05-19T11:05:14.897Z,62.84
2023-05-19T11:07:44.223Z,62.61
2023-05-19T11:10:11.476Z,62.43
2023-05-19T11:12:45.793Z,62.39
2023-05-19T11:15:14.179Z,62.59
2023-05-19T11:17:45.274Z,62.63
2023-05-19T11:20:22.780Z,62.98
2023-05-19T11:23:09.476Z,63.34
2023-05-19T11:25:47.617Z,63.18
2023-05-19T11:28:19.658Z,63.26
2023-05-19T11:30:50.635Z,62.77
2023-05-19T11:33:20.622Z,62.57
2023-05-19T11:35:49.554Z,63.10
2023-05-19T11:38:18.585Z,62.92
2023-05-19T11:40:45.268Z,62.97
2023-05-19T11:43:11.749Z,62.98
2023-05-19T11:45:38.464Z,63.48
2023-05-19T11:48:05.991Z,63.37
2023-05-19T11:50:32.756Z,63.35
2023-05-19T11:53:00.885Z,62.73
2023-05-19T11:55:27.974Z,63.45
2023-05-19T11:58:04.943Z,62.89
2023-05-19T12:00:39.535Z,62.89
2023-05-19T12:03:07.392Z,63.51
2023-05-19T12:05:40.911Z,63.86
2023-05-19T12:08:09.920Z,64.27
2023-05-19T12:10:36.918Z,64.33
2023-05-19T12:13:03.645Z,64.14
2023-05-19T12:15:32.054Z,64.15
2023-05-19T12:18:00.472Z,64.60
2023-05-19T12:20:28.523Z,63.86
2023-05-19T12:22:56.387Z,64.13
2023-05-19T12:25:23.922Z,63.73
2023-05-19T12:27:52.748Z,63.50
2023-05-19T12:30:26.414Z,63.46
2023-05-19T12:32:54.194Z,62.99
2023-05-19T12:35:23.241Z,62.90
2023-05-19T12:37:50.560Z,63.15
2023-05-19T12:40:17.495Z,63.12
2023-05-19T12:42:48.747Z,62.69
2023-05-19T12:45:15.290Z,62.83
2023-05-19T12:47:41.888Z,62.66
2023-05-19T12:50:10.006Z,62.78
2023-05-19T12:52:47.757Z,62.37
2023-05-19T12:55:16.344Z,61.86
2023-05-19T12:57:44.671Z,62.57
2023-05-19T13:00:22.822Z,62.09
2023-05-19T13:03:05.421Z,62.27
2023-05-19T13:05:35.091Z,62.30
2023-05-19T13:08:05.459Z,62.50
2023-05-19T13:10:33.465Z,62.30
2023-05-19T13:13:00.893Z,62.35
2023-05-19T13:15:34.236Z,62.39
2023-05-19T13:18:03.732Z,62.26
2023-05-19T13:20:30.860Z,62.25
2023-05-19T13:22:57.824Z,61.24
2023-05-19T13:25:24.408Z,60.97
2023-05-19T13:27:51.073Z,60.91
2023-05-19T13:30:18.737Z,60.33
2023-05-19T13:32:46.107Z,60.71
2023-05-19T13:35:14.586Z,60.28
2023-05-19T13:37:44.352Z,60.56
2023-05-19T13:40:11.589Z,60.58
2023-05-19T13:42:38.127Z,60.52
2023-05-19T13:45:05.342Z,60.94
2023-05-19T13:47:31.894Z,60.96
2023-05-19T13:49:58.635Z,61.55
2023-05-19T13:52:28.224Z,61.72
2023-05-19T13:54:56.751Z,61.65
2023-05-19T13:57:24.271Z,61.41
2023-05-19T14:00:01.801Z,61.85
2023-05-19T14:02:38.693Z,61.58
2023-05-19T14:05:06.354Z,62.02
2023-05-19T14:07:34.685Z,61.58
2023-05-19T14:10:02.443Z,61.82
2023-05-19T14:12:38.027Z,61.73
2023-05-19T14:15:14.215Z,61.44
2023-05-19T14:17:40.843Z,61.56
2023-05-19T14:20:08.445Z,61.42
2023-05-19T14:22:35.218Z,61.34
2023-05-19T14:25:02.168Z,61.67
2023-05-19T14:27:28.650Z,61.14
2023-05-19T14:29:55.250Z,61.03
2023-05-19T14:32:22.165Z,60.69
2023-05-19T14:34:52.685Z,60.06
2023-05-19T14:37:20.095Z,59.94
2023-05-19T14:39:46.674Z,60.03
2023-05-19T14:42:13.153Z,60.08
2023-05-19T14:44:39.613Z,60.13
2023-05-19T14:47:07.379Z,60.38
2023-05-19T14:49:34.006Z,60.19
2023-05-19T14:52:00.751Z,59.84
2023-05-19T14:54:27.193Z,59.91
2023-05-19T14:56:53.675Z,59.74
2023-05-19T14:59:21.548Z,59.43
2023-05-19T15:01:48.130Z,59.14
2023-05-19T15:04:14.784Z,59.04
2023-05-19T15:06:41.594Z,58.75
2023-05-19T15:09:08.226Z,58.26
2023-05-19T15:11:34.743Z,58.21
2023-05-19T15:14:01.248Z,58.15
2023-05-19T15:16:27.789Z,58.46
2023-05-19T15:18:54.839Z,58.42
2023-05-19T15:21:21.714Z,58.44
2023-05-19T15:23:48.376Z,58.03
2023-05-19T15:26:14.924Z,57.33
2023-05-19T15:28:41.629Z,57.13
2023-05-19T15:31:08.276Z,57.30
2023-05-19T15:33:34.887Z,57.42
2023-05-19T15:36:01.420Z,57.61
2023-05-19T15:38:29.830Z,57.83
2023-05-19T15:40:56.641Z,57.89
2023-05-19T15:43:23.265Z,58.00
2023-05-19T15:45:52.231Z,58.05
2023-05-19T15:48:19.117Z,58.19
2023-05-19T15:50:45.838Z,58.35
2023-05-19T15:53:12.416Z,58.41
2023-05-19T15:55:38.903Z,58.46
2023-05-19T15:58:05.455Z,58.46
2023-05-19T16:00:32.099Z,58.42
2023-05-19T16:02:58.837Z,58.50
2023-05-19T16:05:25.561Z,58.15
2023-05-19T16:07:52.017Z,57.39
2023-05-19T16:10:18.504Z,57.40
2023-05-19T16:12:45.011Z,57.36
2023-05-19T16:15:11.586Z,56.99
2023-05-19T16:17:38.204Z,56.43
2023-05-19T16:20:05.313Z,56.51
2023-05-19T16:22:32.196Z,56.12
2023-05-19T16:24:58.786Z,56.49
2023-05-19T16:27:25.415Z,56.46
2023-05-19T16:29:51.916Z,56.47
2023-05-19T16:32:18.616Z,56.55
2023-05-19T16:34:45.101Z,56.52
2023-05-19T16:37:11.601Z,56.23
2023-05-19T16:39:38.082Z,56.48
2023-05-19T16:42:04.954Z,56.37
2023-05-19T16:44:31.446Z,56.31
2023-05-19T16:46:57.962Z,56.34
2023-05-19T16:49:24.437Z,56.66
2023-05-19T16:51:52.874Z,56.79
2023-05-19T16:54:19.642Z,57.14
2023-05-19T16:56:46.217Z,57.31
2023-05-19T16:59:12.766Z,57.54
2023-05-19T17:01:39.343Z,57.69
2023-05-19T17:04:05.964Z,57.85
2023-05-19T17:06:32.443Z,58.10
2023-05-19T17:08:58.969Z,58.24
2023-05-19T17:11:26.715Z,58.28
2023-05-19T17:13:53.211Z,58.65
2023-05-19T17:16:19.713Z,59.16
2023-05-19T17:18:47.923Z,59.23
2023-05-19T17:21:14.556Z,59.75
2023-05-19T17:23:41.521Z,59.75
2023-05-19T17:26:07.999Z,60.03
2023-05-19T17:28:34.692Z,60.07
2023-05-19T17:31:01.416Z,60.14
2023-05-19T17:33:27.932Z,60.27
2023-05-19T17:35:54.478Z,60.45
2023-05-19T17:38:20.953Z,60.01
2023-05-19T17:40:47.506Z,60.32
2023-05-19T17:43:15.035Z,60.47
2023-05-19T17:45:41.526Z,60.33
2023-05-19T17:48:08.060Z,60.33
2023-05-19T17:50:34.798Z,60.41
2023-05-19T17:53:01.692Z,59.99
2023-05-19T17:55:30.269Z,59.22
2023-05-19T17:57:57.522Z,58.68
2023-05-19T18:00:25.248Z,58.66
2023-05-19T18:02:52.511Z,58.68
2023-05-19T18:05:19.576Z,59.04
2023-05-19T18:07:46.301Z,58.95
2023-05-19T18:10:15.421Z,58.89
2023-05-19T18:12:42.082Z,59.25
2023-05-19T18:15:08.860Z,59.55
2023-05-19T18:17:35.466Z,59.67
2023-05-19T18:20:02.373Z,60.00
2023-05-19T18:22:28.930Z,60.55
2023-05-19T18:24:56.183Z,60.88
2023-05-19T18:27:22.693Z,61.25
2023-05-19T18:29:49.141Z,61.62
2023-05-19T18:32:17.620Z,62.26
2023-05-19T18:34:44.197Z,62.83
2023-05-19T18:37:10.847Z,63.04
2023-05-19T18:39:37.426Z,63.36
2023-05-19T18:42:04.125Z,63.16
2023-05-19T18:44:30.612Z,63.56
2023-05-19T18:46:57.071Z,63.87
2023-05-19T18:49:24.889Z,63.99
2023-05-19T18:51:51.751Z,64.18
2023-05-19T18:54:18.327Z,64.83
2023-05-19T18:56:44.834Z,64.91
2023-05-19T18:59:11.440Z,65.25
2023-05-19T19:01:38.077Z,65.48
2023-05-19T19:04:04.795Z,65.62
2023-05-19T19:06:31.766Z,65.75
2023-05-19T19:08:58.194Z,66.09
2023-05-19T19:11:24.664Z,66.07
2023-05-19T19:13:51.418Z,66.34
2023-05-19T19:16:18.137Z,66.76
2023-05-19T19:18:44.737Z,66.97
2023-05-19T19:21:11.380Z,67.15
2023-05-19T19:23:37.990Z,66.84
2023-05-19T19:26:04.500Z,67.04
2023-05-19T19:28:31.078Z,67.51
2023-05-19T19:30:57.583Z,68.01
2023-05-19T19:33:24.724Z,68.28
2023-05-19T19:35:51.482Z,68.21
2023-05-19T19:38:18.000Z,68.04
2023-05-19T19:40:44.465Z,68.25
2023-05-19T19:43:11.255Z,68.49
2023-05-19T19:45:39.513Z,68.55
2023-05-19T19:48:07.152Z,68.60
2023-05-19T19:50:34.509Z,68.89
2023-05-19T19:53:01.371Z,68.71
2023-05-19T19:55:28.865Z,69.08
2023-05-19T19:57:55.384Z,69.17
2023-05-19T20:00:21.885Z,69.52
2023-05-19T20:03:03.451Z,69.89
2023-05-19T20:05:31.347Z,69.48
2023-05-19T20:07:57.830Z,69.65
2023-05-19T20:10:24.359Z,70.14
2023-05-19T20:12:51.171Z,69.73
2023-05-19T20:15:17.807Z,70.06
2023-05-19T20:17:44.336Z,69.75
2023-05-19T20:20:12.288Z,69.91
2023-05-19T20:22:39.161Z,70.04
2023-05-19T20:25:06.173Z,70.15
2023-05-19T20:27:32.662Z,70.36
2023-05-19T20:29:59.171Z,70.56
2023-05-19T20:32:25.865Z,70.37
2023-05-19T20:34:52.426Z,70.81
2023-05-19T20:37:18.914Z,70.32
2023-05-19T20:39:45.379Z,70.66
2023-05-19T20:42:12.285Z,70.76
2023-05-19T20:44:38.832Z,70.75
2023-05-19T20:47:08.091Z,71.21
2023-05-19T20:49:34.930Z,70.84
2023-05-19T20:52:01.531Z,71.18
2023-05-19T20:54:28.031Z,71.06
2023-05-19T20:56:54.572Z,71.04
2023-05-19T20:59:21.162Z,71.32
2023-05-19T21:01:48.031Z,71.48
2023-05-19T21:04:14.664Z,71.91
2023-05-19T21:06:41.295Z,72.05
2023-05-19T21:09:07.781Z,72.35
2023-05-19T21:11:34.346Z,72.02
2023-05-19T21:14:04.081Z,72.02
2023-05-19T21:16:31.338Z,72.50
2023-05-19T21:18:58.074Z,72.47
2023-05-19T21:21:24.682Z,72.82
2023-05-19T21:23:51.175Z,72.91
2023-05-19T21:26:17.884Z,72.41
2023-05-19T21:28:44.332Z,72.48
2023-05-19T21:31:10.968Z,72.71
2023-05-19T21:33:37.560Z,72.93
2023-05-19T21:36:04.236Z,72.97
2023-05-19T21:38:30.845Z,73.62
2023-05-19T21:40:57.299Z,73.56
2023-05-19T21:43:23.756Z,73.14
2023-05-19T21:45:50.206Z,73.30
2023-05-19T21:48:16.793Z,73.40
2023-05-19T21:50:43.359Z,73.66
2023-05-19T21:53:09.953Z,73.71
2023-05-19T21:55:36.481Z,73.11
2023-05-19T21:58:03.058Z,73.44
2023-05-19T22:00:29.621Z,73.57
2023-05-19T22:02:56.290Z,73.71
2023-05-19T22:05:22.896Z,73.35
2023-05-19T22:07:49.405Z,73.12
2023-05-19T22:10:15.945Z,74.02
2023-05-19T22:12:42.449Z,74.05
2023-05-19T22:15:09.683Z,73.77
2023-05-19T22:17:36.227Z,74.06
2023-05-19T22:20:02.732Z,73.85
2023-05-19T22:22:29.163Z,73.71
2023-05-19T22:24:55.653Z,74.23
2023-05-19T22:27:22.104Z,73.86
2023-05-19T22:29:48.599Z,74.08
2023-05-19T22:32:17.937Z,74.20
2023-05-19T22:34:44.734Z,73.70
2023-05-19T22:37:11.662Z,73.93
2023-05-19T22:39:39.008Z,74.22
2023-05-19T22:42:05.873Z,74.31
2023-05-19T22:44:32.336Z,74.03
2023-05-19T22:46:58.792Z,74.23
2023-05-19T22:49:26.146Z,73.87
2023-05-19T22:51:52.752Z,74.10
2023-05-19T22:54:19.270Z,74.23
2023-05-19T22:56:48.417Z,73.81
2023-05-19T22:59:17.611Z,73.91
2023-05-19T23:01:46.411Z,74.44
2023-05-19T23:04:13.485Z,74.10
2023-05-19T23:06:40.012Z,73.92
2023-05-19T23:09:06.613Z,74.60
2023-05-19T23:11:33.937Z,74.46
2023-05-19T23:14:00.522Z,74.00
2023-05-19T23:16:26.993Z,74.49
2023-05-19T23:18:53.529Z,74.83
2023-05-19T23:21:20.047Z,74.44
2023-05-19T23:23:46.529Z,74.61
2023-05-19T23:26:15.885Z,74.79
2023-05-19T23:28:43.295Z,74.92
2023-05-19T23:31:09.940Z,74.67
2023-05-19T23:33:36.465Z,75.37
2023-05-19T23:36:07.801Z,75.46
2023-05-19T23:38:35.314Z,75.28
2023-05-19T23:41:02.258Z,75.49
2023-05-19T23:43:28.889Z,75.23
2023-05-19T23:45:55.494Z,75.25
2023-05-19T23:48:21.984Z,75.76
2023-05-19T23:50:48.490Z,75.46
2023-05-19T23:53:15.069Z,75.41
2023-05-19T23:55:42.173Z,75.46
2023-05-19T23:58:08.675Z,75.46
